TNCCMDPP

Guest
Details From TNCC - Curacao Hato
To MDPP - Puerto Plata Gregorio Luperon Intl
Flight Number -
Tags generated
Created
Modified
Stats Distance 470 nm / 871 km
Max Altitude 34,000 ft / 10,363 m
Waypoints 8
Social Downloads 1
Likes 0
Share VATSIM

Download

Looking for another format? Having issues loading an existing format? Contact us
Advertisement - Login to hide

Notes

Basic altitude profile: - Ascent Rate: 2500ft/min - Ascent Speed: 250kts - Cruise Altitude: 35000ft - Cruise Speed: 420kts - Descent Rate: 1500ft/min - Descent Speed: 250kts Options: - Use NATs: yes - Use PACOTS: yes - Use low airways: yes - Use high airways: yes

Route

TNCC ONDAS UA315 DUSAN UA567 BEROX UW7 GABRA W7 PTA MDPP

ID Type Via Altitude Latitude Longitude Leg Dist Tot Dist Heading (true) Name
O TNCC APT - 0 ft / 0 m 12.18885˚ -68.95980˚ - 0 nm - Curacao Hato
ONDAS FIX - 20,300 ft / 6,187 m 13.04136˚ -69.39025˚ 57 nm 57 nm 334° / 334° -
DUSAN FIX UA315 (AWY-HI) 34,000 ft / 10,363 m 14.39700˚ -70.00950˚ 89 nm 146 nm 336° / 336° -
MOLOC FIX UA567 (AWY-HI) 34,000 ft / 10,363 m 15.03333˚ -70.03333˚ 38 nm 184 nm 358° / 358° -
BEROX FIX UA567 (AWY-HI) 34,000 ft / 10,363 m 16.00000˚ -70.06667˚ 58 nm 242 nm 358° / 358° -
GABRA FIX UW7 (AWY-HI) 24,700 ft / 7,529 m 17.85417˚ -70.29944˚ 112 nm 354 nm 353° / 353° -
PTA VOR W7 (AWY-LO) 14,000 ft / 4,267 m 19.75917˚ -70.57056˚ 115 nm 470 nm 352° / 352° PUERTO PLATA VOR-DME
O MDPP APT - 0 ft / 0 m 19.75790˚ -70.57003˚ 0 nm 470 nm 159° / 159° Puerto Plata Gregorio Luperon Intl

Altitude Profile

Advertisement - Login to hide

Weather


0- 5 10 15 20 25 30 35+ Temperature / ° C

Clouds and Precipitation
Forecast for 2017-12-13 00:00 UTC. Updated an hour ago

Ground ~20,000 ft ~40,000 ft Winds

TNCC

Details ICAO TNCC (CUR)
Name Curacao Hato
Region Caribbean Netherlands, Aruba, Curaçao, Sint Maarten
Timezone Unknown (UTC+0.0)
Stats Elevation 29 ft / 9 m (AMSL)
Location 12.188853° -68.959803°
Runways 1
Magnetic Variation 11.330° W

METAR

TNCC 122200Z 10007KT 070V130 9999 FEW025 27/21 Q1011 NOSIG

Decode

TAF

Not found

Departure Runways

ID Width Length Bearing (true) Bearing (mag) Surface Threshold Offset Overrun Length
11 197 ft / 60 m 11,197 ft / 3,413 m 102.24° 113.57° Asphalt 300 ft / 91 m 0 ft / 0 m
29 197 ft / 60 m 11,197 ft / 3,413 m 282.24° 293.57° Asphalt 300 ft / 91 m 200 ft / 61 m

MDPP

Details ICAO MDPP (POP)
Name Puerto Plata Gregorio Luperon Intl
Region Dominican Republic
Timezone America/Santo_Domingo (UTC-4.0)
Stats Elevation 15 ft / 5 m (AMSL)
Location 19.757900° -70.570035°
Runways 1
Magnetic Variation 11.228° W

METAR

MDPP 122200Z 06005KT 9999 FEW020 28/23 Q1012

Decode

TAF

Not found

Destination Runways

ID Width Length Bearing (true) Bearing (mag) Surface Threshold Offset Overrun Length
08 151 ft / 46 m 10,101 ft / 3,079 m 72.95° 84.18° Asphalt 0 ft / 0 m 0 ft / 0 m
26 151 ft / 46 m 10,101 ft / 3,079 m 252.95° 264.18° Asphalt 0 ft / 0 m 0 ft / 0 m